RYR15P EICK-EGPH
Flight info
| Callsign | RYR15P |
|---|---|
| Flight time | 1h 4m |
| Altitude | 32000 |
| Route | TISMO DUB ROTEV GOTNA BLACA P600 TUNSO |
| Aircraft | B738/L-V/N |
Departure
| Time | 2026-05-04 18:19 |
|---|---|
| Airport | Cork International Airport (EICK) |
Arrival
| Time | 2026-05-04 19:23 |
|---|---|
| Airport | Edinburgh Airport (EGPH) |
| Time | Latitude | Longitude | Altitude | Speed | Heading |
|---|---|---|---|---|---|
| 2026-05-04 17:57 | 51.84848 | -8.49052 | 502 ft | 0 kts | 70° |
| 2026-05-04 18:11 | 51.84848 | -8.49054 | 502 ft | 2 kts | 70° |
| 2026-05-04 18:11 | 51.84839 | -8.49090 | 502 ft | 4 kts | 69° |
| 2026-05-04 18:11 | 51.84830 | -8.49131 | 502 ft | 4 kts | 72° |
| 2026-05-04 18:12 | 51.84825 | -8.49171 | 502 ft | 4 kts | 93° |
| 2026-05-04 18:12 | 51.84832 | -8.49211 | 502 ft | 4 kts | 136° |
| 2026-05-04 18:12 | 51.84845 | -8.49225 | 501 ft | 1 kts | 168° |
| 2026-05-04 18:14 | 51.84838 | -8.49222 | 501 ft | 1 kts | 168° |
| 2026-05-04 18:14 | 51.84807 | -8.49213 | 502 ft | 10 kts | 170° |
| 2026-05-04 18:15 | 51.84644 | -8.49129 | 500 ft | 15 kts | 159° |
| 2026-05-04 18:15 | 51.84415 | -8.48995 | 485 ft | 16 kts | 162° |
| 2026-05-04 18:15 | 51.84332 | -8.49056 | 482 ft | 16 kts | 243° |
| 2026-05-04 18:16 | 51.84253 | -8.49179 | 480 ft | 17 kts | 175° |
| 2026-05-04 18:16 | 51.84110 | -8.49087 | 476 ft | 28 kts | 159° |
| 2026-05-04 18:16 | 51.83895 | -8.48960 | 470 ft | 31 kts | 161° |
| 2026-05-04 18:17 | 51.83503 | -8.48734 | 469 ft | 28 kts | 160° |
| 2026-05-04 18:17 | 51.83333 | -8.48631 | 469 ft | 17 kts | 149° |
| 2026-05-04 18:17 | 51.83254 | -8.48592 | 471 ft | 8 kts | 318° |
| 2026-05-04 18:18 | 51.83289 | -8.48615 | 470 ft | 0 kts | 338° |
| 2026-05-04 18:18 | 51.83369 | -8.48662 | 469 ft | 48 kts | 340° |
| 2026-05-04 18:18 | 51.83985 | -8.49027 | 469 ft | 137 kts | 339° |
| 2026-05-04 18:18 | 51.85041 | -8.49670 | 878 ft | 181 kts | 340° |
| 2026-05-04 18:19 | 51.87465 | -8.50805 | 3083 ft | 192 kts | 357° |
| 2026-05-04 18:19 | 51.88790 | -8.50068 | 3373 ft | 222 kts | 41° |
| 2026-05-04 18:19 | 51.89820 | -8.48078 | 3805 ft | 245 kts | 50° |
| 2026-05-04 18:20 | 51.90895 | -8.45847 | 4484 ft | 257 kts | 50° |
| 2026-05-04 18:20 | 51.92004 | -8.43569 | 5544 ft | 258 kts | 50° |
| 2026-05-04 18:20 | 51.93133 | -8.41285 | 6509 ft | 262 kts | 49° |
| 2026-05-04 18:20 | 51.94293 | -8.38964 | 7442 ft | 268 kts | 49° |
| 2026-05-04 18:21 | 51.95484 | -8.36603 | 8340 ft | 273 kts | 49° |
| 2026-05-04 18:21 | 51.96701 | -8.34206 | 9233 ft | 278 kts | 49° |
| 2026-05-04 18:21 | 51.97945 | -8.31763 | 10151 ft | 283 kts | 49° |
| 2026-05-04 18:21 | 51.99227 | -8.29252 | 10766 ft | 299 kts | 50° |
| 2026-05-04 18:22 | 52.00612 | -8.26543 | 11134 ft | 321 kts | 50° |
| 2026-05-04 18:22 | 52.02057 | -8.23719 | 11902 ft | 328 kts | 50° |
| 2026-05-04 18:22 | 52.03519 | -8.20858 | 12780 ft | 330 kts | 50° |
| 2026-05-04 18:22 | 52.04996 | -8.17973 | 13657 ft | 334 kts | 50° |
| 2026-05-04 18:23 | 52.06481 | -8.15062 | 14527 ft | 336 kts | 50° |
| 2026-05-04 18:23 | 52.07975 | -8.12125 | 15362 ft | 339 kts | 51° |
| 2026-05-04 18:23 | 52.09485 | -8.09157 | 16141 ft | 343 kts | 51° |
| 2026-05-04 18:23 | 52.11010 | -8.06159 | 16927 ft | 345 kts | 51° |
| 2026-05-04 18:24 | 52.12543 | -8.03142 | 17711 ft | 348 kts | 51° |
| 2026-05-04 18:24 | 52.14196 | -8.00234 | 18419 ft | 352 kts | 41° |
| 2026-05-04 18:24 | 52.16131 | -7.97778 | 19178 ft | 354 kts | 37° |
| 2026-05-04 18:24 | 52.18134 | -7.95416 | 19910 ft | 356 kts | 37° |
| 2026-05-04 18:25 | 52.20160 | -7.93058 | 20610 ft | 359 kts | 37° |
| 2026-05-04 18:25 | 52.22192 | -7.90681 | 21295 ft | 361 kts | 37° |
| 2026-05-04 18:25 | 52.24234 | -7.88269 | 21931 ft | 364 kts | 37° |
| 2026-05-04 18:25 | 52.26284 | -7.85828 | 22560 ft | 366 kts | 37° |
| 2026-05-04 18:26 | 52.28342 | -7.83358 | 23168 ft | 369 kts | 37° |
| 2026-05-04 18:26 | 52.30411 | -7.80863 | 23772 ft | 371 kts | 37° |
| 2026-05-04 18:26 | 52.32493 | -7.78344 | 24358 ft | 373 kts | 37° |
| 2026-05-04 18:26 | 52.34585 | -7.75806 | 24917 ft | 376 kts | 37° |
| 2026-05-04 18:27 | 52.36662 | -7.73280 | 25406 ft | 379 kts | 38° |
| 2026-05-04 18:27 | 52.38788 | -7.70692 | 25925 ft | 381 kts | 38° |
| 2026-05-04 18:27 | 52.40939 | -7.68069 | 26475 ft | 382 kts | 38° |
| 2026-05-04 18:27 | 52.43045 | -7.65498 | 27125 ft | 380 kts | 38° |
| 2026-05-04 18:28 | 52.45155 | -7.62921 | 27811 ft | 376 kts | 38° |
| 2026-05-04 18:28 | 52.47243 | -7.60368 | 28449 ft | 374 kts | 38° |
| 2026-05-04 18:28 | 52.49332 | -7.57808 | 29029 ft | 373 kts | 38° |
| 2026-05-04 18:28 | 52.51401 | -7.55272 | 29577 ft | 372 kts | 38° |
| 2026-05-04 18:29 | 52.53470 | -7.52731 | 30133 ft | 370 kts | 38° |
| 2026-05-04 18:29 | 52.55524 | -7.50202 | 30663 ft | 369 kts | 38° |
| 2026-05-04 18:29 | 52.57578 | -7.47673 | 31129 ft | 369 kts | 38° |
| 2026-05-04 18:29 | 52.59635 | -7.45137 | 31542 ft | 370 kts | 37° |
| 2026-05-04 18:30 | 52.63771 | -7.40029 | 32055 ft | 373 kts | 37° |
| 2026-05-04 18:30 | 52.65836 | -7.37475 | 32081 ft | 370 kts | 37° |
| 2026-05-04 18:31 | 52.69974 | -7.32349 | 32089 ft | 373 kts | 37° |
| 2026-05-04 18:31 | 52.74136 | -7.27176 | 32089 ft | 376 kts | 37° |
| 2026-05-04 18:32 | 52.78314 | -7.21973 | 32087 ft | 377 kts | 37° |
| 2026-05-04 18:32 | 52.82500 | -7.16745 | 32084 ft | 378 kts | 37° |
| 2026-05-04 18:33 | 52.86701 | -7.11488 | 32080 ft | 378 kts | 37° |
| 2026-05-04 18:33 | 52.90892 | -7.06231 | 32086 ft | 378 kts | 37° |
| 2026-05-04 18:34 | 52.95047 | -7.01005 | 32072 ft | 378 kts | 37° |
| 2026-05-04 18:34 | 52.99241 | -6.95714 | 32071 ft | 378 kts | 37° |
| 2026-05-04 18:35 | 53.03424 | -6.90427 | 32079 ft | 378 kts | 37° |
| 2026-05-04 18:35 | 53.07614 | -6.85117 | 32076 ft | 379 kts | 37° |
| 2026-05-04 18:36 | 53.11806 | -6.79789 | 32072 ft | 380 kts | 37° |
| 2026-05-04 18:36 | 53.15324 | -6.75310 | 32077 ft | 380 kts | 37° |
| 2026-05-04 18:37 | 53.19527 | -6.69945 | 32070 ft | 381 kts | 37° |
| 2026-05-04 18:37 | 53.23746 | -6.64545 | 32075 ft | 382 kts | 37° |
| 2026-05-04 18:38 | 53.27925 | -6.59184 | 32071 ft | 383 kts | 37° |
| 2026-05-04 18:38 | 53.32172 | -6.53722 | 32075 ft | 383 kts | 37° |
| 2026-05-04 18:39 | 53.36394 | -6.48276 | 32073 ft | 383 kts | 37° |
| 2026-05-04 18:39 | 53.40588 | -6.42854 | 32074 ft | 384 kts | 37° |
| 2026-05-04 18:40 | 53.44818 | -6.37372 | 32071 ft | 384 kts | 37° |
| 2026-05-04 18:40 | 53.49102 | -6.32035 | 32067 ft | 384 kts | 29° |
| 2026-05-04 18:41 | 53.54039 | -6.28708 | 32083 ft | 383 kts | 15° |
| 2026-05-04 18:41 | 53.59208 | -6.26439 | 32074 ft | 384 kts | 14° |
| 2026-05-04 18:42 | 53.64386 | -6.24173 | 32071 ft | 385 kts | 14° |
| 2026-05-04 18:42 | 53.69574 | -6.21847 | 32074 ft | 385 kts | 14° |
| 2026-05-04 18:43 | 53.74749 | -6.19504 | 32075 ft | 385 kts | 14° |
| 2026-05-04 18:43 | 53.79925 | -6.17147 | 32073 ft | 385 kts | 14° |
| 2026-05-04 18:44 | 53.85099 | -6.14784 | 32074 ft | 385 kts | 14° |
| 2026-05-04 18:44 | 53.90277 | -6.12416 | 32075 ft | 385 kts | 14° |
| 2026-05-04 18:45 | 53.95449 | -6.10043 | 32074 ft | 385 kts | 14° |
| 2026-05-04 18:45 | 54.00624 | -6.07665 | 32074 ft | 385 kts | 14° |
| 2026-05-04 18:46 | 54.05655 | -6.04574 | 32081 ft | 385 kts | 24° |
| 2026-05-04 18:46 | 54.10474 | -6.00560 | 32071 ft | 386 kts | 25° |
| 2026-05-04 18:47 | 54.15287 | -5.96530 | 32074 ft | 386 kts | 25° |
| 2026-05-04 18:47 | 54.20115 | -5.92529 | 32074 ft | 385 kts | 25° |
| 2026-05-04 18:48 | 54.24944 | -5.88545 | 32039 ft | 386 kts | 25° |
| 2026-05-04 18:48 | 54.27368 | -5.86545 | 31756 ft | 384 kts | 24° |
| 2026-05-04 18:48 | 54.29724 | -5.84598 | 31435 ft | 380 kts | 24° |
| 2026-05-04 18:48 | 54.32091 | -5.82641 | 31078 ft | 376 kts | 24° |
| 2026-05-04 18:49 | 54.34440 | -5.80696 | 30723 ft | 374 kts | 24° |
| 2026-05-04 18:49 | 54.36774 | -5.78761 | 30366 ft | 371 kts | 24° |
| 2026-05-04 18:49 | 54.39092 | -5.76837 | 30022 ft | 369 kts | 24° |
| 2026-05-04 18:49 | 54.41387 | -5.74930 | 29650 ft | 367 kts | 24° |
| 2026-05-04 18:50 | 54.43674 | -5.73027 | 29274 ft | 364 kts | 24° |
| 2026-05-04 18:50 | 54.45948 | -5.71131 | 28897 ft | 362 kts | 24° |
| 2026-05-04 18:50 | 54.48205 | -5.69248 | 28510 ft | 360 kts | 24° |
| 2026-05-04 18:50 | 54.50452 | -5.67371 | 28146 ft | 358 kts | 24° |
| 2026-05-04 18:51 | 54.52685 | -5.65504 | 27775 ft | 357 kts | 24° |
| 2026-05-04 18:51 | 54.54908 | -5.63643 | 27407 ft | 355 kts | 24° |
| 2026-05-04 18:51 | 54.57126 | -5.61784 | 27036 ft | 353 kts | 24° |
| 2026-05-04 18:51 | 54.59308 | -5.59834 | 26630 ft | 354 kts | 31° |
| 2026-05-04 18:52 | 54.61291 | -5.57266 | 26130 ft | 360 kts | 39° |
| 2026-05-04 18:52 | 54.63166 | -5.54436 | 25649 ft | 362 kts | 40° |
| 2026-05-04 18:52 | 54.65058 | -5.51521 | 25150 ft | 364 kts | 40° |
| 2026-05-04 18:52 | 54.66949 | -5.48603 | 24654 ft | 366 kts | 40° |
| 2026-05-04 18:53 | 54.68853 | -5.45678 | 24156 ft | 366 kts | 40° |
| 2026-05-04 18:53 | 54.70765 | -5.42753 | 23660 ft | 368 kts | 40° |
| 2026-05-04 18:53 | 54.72685 | -5.39824 | 23166 ft | 368 kts | 40° |
| 2026-05-04 18:53 | 54.74603 | -5.36900 | 22728 ft | 367 kts | 40° |
| 2026-05-04 18:54 | 54.76519 | -5.33979 | 22284 ft | 367 kts | 39° |
| 2026-05-04 18:54 | 54.78430 | -5.31062 | 21831 ft | 366 kts | 39° |
| 2026-05-04 18:54 | 54.80338 | -5.28148 | 21383 ft | 365 kts | 39° |
| 2026-05-04 18:54 | 54.82244 | -5.25232 | 20940 ft | 365 kts | 39° |
| 2026-05-04 18:55 | 54.84143 | -5.22323 | 20485 ft | 364 kts | 39° |
| 2026-05-04 18:55 | 54.87941 | -5.16557 | 19583 ft | 361 kts | 36° |
| 2026-05-04 18:55 | 54.90049 | -5.14240 | 19137 ft | 357 kts | 24° |
| 2026-05-04 18:56 | 54.92277 | -5.12333 | 18686 ft | 356 kts | 23° |
| 2026-05-04 18:56 | 54.94506 | -5.10467 | 18240 ft | 356 kts | 23° |
| 2026-05-04 18:56 | 54.96729 | -5.08594 | 17798 ft | 355 kts | 23° |
| 2026-05-04 18:56 | 54.98946 | -5.06703 | 17347 ft | 354 kts | 24° |
| 2026-05-04 18:57 | 55.01150 | -5.04805 | 16898 ft | 353 kts | 24° |
| 2026-05-04 18:57 | 55.03341 | -5.02907 | 16484 ft | 351 kts | 24° |
| 2026-05-04 18:57 | 55.05514 | -5.01019 | 16066 ft | 349 kts | 24° |
| 2026-05-04 18:57 | 55.07686 | -4.99128 | 15637 ft | 348 kts | 24° |
| 2026-05-04 18:58 | 55.09825 | -4.97169 | 15204 ft | 348 kts | 31° |
| 2026-05-04 18:58 | 55.11546 | -4.94214 | 14767 ft | 353 kts | 54° |
| 2026-05-04 18:58 | 55.12667 | -4.90410 | 14378 ft | 352 kts | 64° |
| 2026-05-04 18:58 | 55.13643 | -4.86489 | 13952 ft | 351 kts | 65° |
| 2026-05-04 18:59 | 55.14594 | -4.82555 | 13526 ft | 350 kts | 65° |
| 2026-05-04 18:59 | 55.15532 | -4.78661 | 13090 ft | 349 kts | 65° |
| 2026-05-04 18:59 | 55.16467 | -4.74798 | 12674 ft | 347 kts | 65° |
| 2026-05-04 18:59 | 55.17413 | -4.70919 | 12250 ft | 346 kts | 65° |
| 2026-05-04 19:00 | 55.18356 | -4.67060 | 11829 ft | 344 kts | 65° |
| 2026-05-04 19:00 | 55.19297 | -4.63222 | 11410 ft | 343 kts | 65° |
| 2026-05-04 19:00 | 55.20236 | -4.59394 | 10976 ft | 341 kts | 65° |
| 2026-05-04 19:00 | 55.21157 | -4.55638 | 10558 ft | 339 kts | 65° |
| 2026-05-04 19:01 | 55.22087 | -4.51848 | 10135 ft | 338 kts | 65° |
| 2026-05-04 19:01 | 55.23009 | -4.48087 | 9715 ft | 336 kts | 65° |
| 2026-05-04 19:01 | 55.23925 | -4.44338 | 9294 ft | 334 kts | 65° |
| 2026-05-04 19:01 | 55.24836 | -4.40604 | 8867 ft | 332 kts | 65° |
| 2026-05-04 19:02 | 55.25741 | -4.36892 | 8440 ft | 330 kts | 65° |
| 2026-05-04 19:02 | 55.26638 | -4.33204 | 8018 ft | 328 kts | 65° |
| 2026-05-04 19:02 | 55.27529 | -4.29533 | 7591 ft | 326 kts | 65° |
| 2026-05-04 19:02 | 55.28412 | -4.25894 | 7195 ft | 322 kts | 65° |
| 2026-05-04 19:03 | 55.29283 | -4.22293 | 6821 ft | 319 kts | 65° |
| 2026-05-04 19:03 | 55.30144 | -4.18725 | 6442 ft | 316 kts | 65° |
| 2026-05-04 19:03 | 55.30998 | -4.15181 | 6068 ft | 314 kts | 65° |
| 2026-05-04 19:03 | 55.31845 | -4.11671 | 5697 ft | 311 kts | 65° |
| 2026-05-04 19:04 | 55.32680 | -4.08203 | 5552 ft | 301 kts | 65° |
| 2026-05-04 19:04 | 55.33468 | -4.04911 | 5553 ft | 286 kts | 65° |
| 2026-05-04 19:04 | 55.34224 | -4.01760 | 5553 ft | 277 kts | 65° |
| 2026-05-04 19:04 | 55.34978 | -3.98612 | 5557 ft | 279 kts | 65° |
| 2026-05-04 19:05 | 55.35727 | -3.95481 | 5545 ft | 276 kts | 65° |
| 2026-05-04 19:05 | 55.36469 | -3.92382 | 5468 ft | 276 kts | 65° |
| 2026-05-04 19:05 | 55.37207 | -3.89292 | 5392 ft | 276 kts | 65° |
| 2026-05-04 19:05 | 55.37950 | -3.86179 | 5314 ft | 276 kts | 65° |
| 2026-05-04 19:06 | 55.38689 | -3.83074 | 5256 ft | 275 kts | 65° |
| 2026-05-04 19:06 | 55.39426 | -3.79975 | 5161 ft | 278 kts | 65° |
| 2026-05-04 19:06 | 55.40173 | -3.76822 | 5048 ft | 279 kts | 65° |
| 2026-05-04 19:06 | 55.40912 | -3.73693 | 5012 ft | 276 kts | 66° |
| 2026-05-04 19:07 | 55.41644 | -3.70589 | 5008 ft | 274 kts | 66° |
| 2026-05-04 19:07 | 55.42374 | -3.67493 | 4998 ft | 274 kts | 66° |
| 2026-05-04 19:07 | 55.43104 | -3.64396 | 5005 ft | 275 kts | 66° |
| 2026-05-04 19:07 | 55.43838 | -3.61273 | 5005 ft | 277 kts | 66° |
| 2026-05-04 19:08 | 55.44572 | -3.58147 | 5013 ft | 277 kts | 66° |
| 2026-05-04 19:08 | 55.45297 | -3.55054 | 5012 ft | 277 kts | 66° |
| 2026-05-04 19:08 | 55.46034 | -3.51915 | 5007 ft | 277 kts | 66° |
| 2026-05-04 19:08 | 55.46766 | -3.48789 | 5012 ft | 276 kts | 66° |
| 2026-05-04 19:09 | 55.47498 | -3.45659 | 5012 ft | 276 kts | 66° |
| 2026-05-04 19:09 | 55.48229 | -3.42530 | 5011 ft | 276 kts | 66° |
| 2026-05-04 19:09 | 55.48952 | -3.39420 | 5022 ft | 276 kts | 66° |
| 2026-05-04 19:09 | 55.49742 | -3.36337 | 5006 ft | 276 kts | 55° |
| 2026-05-04 19:10 | 55.51109 | -3.34034 | 5012 ft | 272 kts | 31° |
| 2026-05-04 19:10 | 55.52748 | -3.32361 | 5004 ft | 272 kts | 27° |
| 2026-05-04 19:10 | 55.54405 | -3.30768 | 5011 ft | 271 kts | 26° |
| 2026-05-04 19:10 | 55.56067 | -3.29183 | 4988 ft | 272 kts | 26° |
| 2026-05-04 19:11 | 55.57715 | -3.27601 | 4989 ft | 268 kts | 26° |
| 2026-05-04 19:11 | 55.59347 | -3.26024 | 4997 ft | 267 kts | 26° |
| 2026-05-04 19:11 | 55.60983 | -3.24416 | 4993 ft | 270 kts | 27° |
| 2026-05-04 19:11 | 55.62623 | -3.22795 | 4998 ft | 270 kts | 27° |
| 2026-05-04 19:12 | 55.64269 | -3.21164 | 5003 ft | 273 kts | 27° |
| 2026-05-04 19:12 | 55.67549 | -3.17989 | 4995 ft | 268 kts | 26° |
| 2026-05-04 19:12 | 55.69178 | -3.16420 | 4981 ft | 264 kts | 26° |
| 2026-05-04 19:13 | 55.70800 | -3.14814 | 4997 ft | 269 kts | 27° |
| 2026-05-04 19:13 | 55.72472 | -3.13474 | 4985 ft | 267 kts | 10° |
| 2026-05-04 19:13 | 55.74296 | -3.12988 | 5033 ft | 265 kts | 5° |
| 2026-05-04 19:13 | 55.76132 | -3.12592 | 5114 ft | 266 kts | 5° |
| 2026-05-04 19:14 | 55.77981 | -3.12184 | 4965 ft | 270 kts | 5° |
| 2026-05-04 19:14 | 55.79828 | -3.11761 | 4835 ft | 270 kts | 5° |
| 2026-05-04 19:14 | 55.81685 | -3.11320 | 4575 ft | 267 kts | 5° |
| 2026-05-04 19:14 | 55.83503 | -3.10875 | 4313 ft | 262 kts | 5° |
| 2026-05-04 19:15 | 55.85306 | -3.10425 | 4066 ft | 260 kts | 5° |
| 2026-05-04 19:15 | 55.87087 | -3.09983 | 3828 ft | 257 kts | 5° |
| 2026-05-04 19:15 | 55.88826 | -3.09551 | 3623 ft | 253 kts | 5° |
| 2026-05-04 19:15 | 55.90568 | -3.09116 | 3419 ft | 249 kts | 5° |
| 2026-05-04 19:16 | 55.92268 | -3.08687 | 3228 ft | 245 kts | 5° |
| 2026-05-04 19:16 | 55.93920 | -3.08269 | 3087 ft | 233 kts | 5° |
| 2026-05-04 19:16 | 55.95468 | -3.07876 | 3008 ft | 217 kts | 4° |
| 2026-05-04 19:16 | 55.96905 | -3.07511 | 2981 ft | 200 kts | 4° |
| 2026-05-04 19:17 | 55.98240 | -3.07173 | 2984 ft | 191 kts | 4° |
| 2026-05-04 19:17 | 55.99546 | -3.06841 | 2992 ft | 189 kts | 4° |
| 2026-05-04 19:17 | 56.00850 | -3.06513 | 3000 ft | 189 kts | 4° |
| 2026-05-04 19:17 | 56.02155 | -3.06184 | 3003 ft | 189 kts | 4° |
| 2026-05-04 19:18 | 56.03381 | -3.06424 | 2982 ft | 169 kts | 325° |
| 2026-05-04 19:18 | 56.04048 | -3.07942 | 2977 ft | 154 kts | 277° |
| 2026-05-04 19:18 | 56.03841 | -3.09763 | 3015 ft | 153 kts | 251° |
| 2026-05-04 19:18 | 56.03431 | -3.11557 | 3007 ft | 156 kts | 247° |
| 2026-05-04 19:19 | 56.02989 | -3.13318 | 2934 ft | 154 kts | 247° |
| 2026-05-04 19:19 | 56.02498 | -3.15038 | 2740 ft | 156 kts | 243° |
| 2026-05-04 19:19 | 56.01960 | -3.16713 | 2525 ft | 155 kts | 242° |
| 2026-05-04 19:19 | 56.01404 | -3.18366 | 2347 ft | 153 kts | 241° |
| 2026-05-04 19:20 | 56.00850 | -3.19998 | 2131 ft | 154 kts | 241° |
| 2026-05-04 19:20 | 56.00293 | -3.21636 | 1925 ft | 155 kts | 241° |
| 2026-05-04 19:20 | 55.99733 | -3.23286 | 1725 ft | 154 kts | 241° |
| 2026-05-04 19:20 | 55.99179 | -3.24918 | 1515 ft | 155 kts | 241° |
| 2026-05-04 19:21 | 55.98636 | -3.26513 | 1296 ft | 145 kts | 241° |
| 2026-05-04 19:21 | 55.98142 | -3.27967 | 1084 ft | 134 kts | 241° |
| 2026-05-04 19:21 | 55.97626 | -3.29429 | 797 ft | 144 kts | 241° |
| 2026-05-04 19:21 | 55.97127 | -3.30949 | 678 ft | 140 kts | 242° |
| 2026-05-04 19:22 | 55.96651 | -3.32410 | 511 ft | 138 kts | 239° |
| 2026-05-04 19:22 | 55.96134 | -3.33893 | 379 ft | 143 kts | 241° |
| 2026-05-04 19:22 | 55.95642 | -3.35345 | 211 ft | 141 kts | 238° |
| 2026-05-04 19:22 | 55.95175 | -3.36737 | 112 ft | 122 kts | 238° |
| 2026-05-04 19:23 | 55.94823 | -3.37772 | 111 ft | 69 kts | 239° |
| 2026-05-04 19:23 | 55.94710 | -3.38054 | 110 ft | 13 kts | 197° |
| 2026-05-04 19:23 | 55.94656 | -3.38018 | 114 ft | 7 kts | 148° |
| 2026-05-04 19:23 | 55.94613 | -3.37970 | 115 ft | 7 kts | 148° |
| 2026-05-04 19:24 | 55.94595 | -3.37932 | 113 ft | 7 kts | 117° |
| 2026-05-04 19:24 | 55.94604 | -3.37850 | 112 ft | 7 kts | 59° |
| 2026-05-04 19:24 | 55.94631 | -3.37769 | 112 ft | 9 kts | 59° |
| 2026-05-04 19:24 | 55.94668 | -3.37658 | 115 ft | 12 kts | 59° |
| 2026-05-04 19:25 | 55.94714 | -3.37521 | 115 ft | 13 kts | 58° |
| 2026-05-04 19:25 | 55.94760 | -3.37386 | 113 ft | 13 kts | 59° |
| 2026-05-04 19:25 | 55.94808 | -3.37244 | 112 ft | 15 kts | 58° |
| 2026-05-04 19:25 | 55.94864 | -3.37076 | 114 ft | 16 kts | 59° |
| 2026-05-04 19:26 | 55.94914 | -3.36928 | 112 ft | 13 kts | 56° |
| 2026-05-04 19:26 | 55.94900 | -3.36794 | 115 ft | 11 kts | 130° |
| 2026-05-04 19:26 | 55.94891 | -3.36721 | 115 ft | 5 kts | 69° |
| 2026-05-04 19:26 | 55.94892 | -3.36658 | 114 ft | 6 kts | 118° |
| 2026-05-04 19:27 | 55.94863 | -3.36614 | 115 ft | 5 kts | 145° |
| 2026-05-04 19:27 | 55.94862 | -3.36613 | 115 ft | 0 kts | 145° |